sensor_id;sensor_type;location;lat;lon;timestamp;P1;durP1;ratioP1;P2;durP2;ratioP2
10509;SDS011;5303;53.266;10.410;2022-07-10T00:02:15;5.80;;;1.40;;
10509;SDS011;5303;53.266;10.410;2022-07-10T00:04:41;4.40;;;1.23;;
10509;SDS011;5303;53.266;10.410;2022-07-10T00:07:06;4.70;;;1.33;;
10509;SDS011;5303;53.266;10.410;2022-07-10T00:09:31;3.80;;;1.20;;
10509;SDS011;5303;53.266;10.410;2022-07-10T00:11:57;2.17;;;0.90;;
10509;SDS011;5303;53.266;10.410;2022-07-10T00:14:22;2.67;;;1.10;;
10509;SDS011;5303;53.266;10.410;2022-07-10T00:16:48;3.70;;;1.10;;
10509;SDS011;5303;53.266;10.410;2022-07-10T00:19:13;2.80;;;1.40;;
10509;SDS011;5303;53.266;10.410;2022-07-10T00:21:39;4.23;;;1.27;;
10509;SDS011;5303;53.266;10.410;2022-07-10T00:24:04;3.33;;;1.00;;
10509;SDS011;5303;53.266;10.410;2022-07-10T00:26:30;2.90;;;1.30;;
10509;SDS011;5303;53.266;10.410;2022-07-10T00:28:55;4.73;;;1.30;;
10509;SDS011;5303;53.266;10.410;2022-07-10T00:31:21;3.23;;;1.10;;
10509;SDS011;5303;53.266;10.410;2022-07-10T00:33:46;3.97;;;1.43;;
10509;SDS011;5303;53.266;10.410;2022-07-10T00:36:13;6.53;;;1.40;;
10509;SDS011;5303;53.266;10.410;2022-07-10T00:38:38;4.30;;;1.50;;
10509;SDS011;5303;53.266;10.410;2022-07-10T00:41:03;2.30;;;1.43;;
10509;SDS011;5303;53.266;10.410;2022-07-10T00:43:29;3.90;;;1.20;;
10509;SDS011;5303;53.266;10.410;2022-07-10T00:45:54;4.77;;;1.20;;
10509;SDS011;5303;53.266;10.410;2022-07-10T00:48:19;8.77;;;1.40;;
10509;SDS011;5303;53.266;10.410;2022-07-10T00:50:45;4.80;;;1.40;;
10509;SDS011;5303;53.266;10.410;2022-07-10T00:53:11;4.90;;;1.50;;
10509;SDS011;5303;53.266;10.410;2022-07-10T00:55:38;1.53;;;1.07;;
10509;SDS011;5303;53.266;10.410;2022-07-10T00:58:05;2.13;;;1.10;;
10509;SDS011;5303;53.266;10.410;2022-07-10T01:00:32;3.17;;;1.10;;
10509;SDS011;5303;53.266;10.410;2022-07-10T01:02:59;4.07;;;1.20;;
10509;SDS011;5303;53.266;10.410;2022-07-10T01:05:24;4.03;;;1.10;;
10509;SDS011;5303;53.266;10.410;2022-07-10T01:07:50;3.73;;;1.10;;
10509;SDS011;5303;53.266;10.410;2022-07-10T01:10:15;5.23;;;1.30;;
10509;SDS011;5303;53.266;10.410;2022-07-10T01:12:40;5.37;;;1.40;;
10509;SDS011;5303;53.266;10.410;2022-07-10T01:15:07;3.77;;;1.10;;
10509;SDS011;5303;53.266;10.410;2022-07-10T01:17:33;4.07;;;1.33;;
10509;SDS011;5303;53.266;10.410;2022-07-10T01:20:03;3.03;;;1.30;;
10509;SDS011;5303;53.266;10.410;2022-07-10T01:22:30;5.53;;;1.37;;
10509;SDS011;5303;53.266;10.410;2022-07-10T01:24:55;4.47;;;1.90;;
10509;SDS011;5303;53.266;10.410;2022-07-10T01:27:20;4.73;;;1.30;;
10509;SDS011;5303;53.266;10.410;2022-07-10T01:29:46;6.13;;;1.30;;
10509;SDS011;5303;53.266;10.410;2022-07-10T01:32:12;1.80;;;1.10;;
10509;SDS011;5303;53.266;10.410;2022-07-10T01:34:37;4.50;;;1.30;;
10509;SDS011;5303;53.266;10.410;2022-07-10T01:37:03;1.87;;;1.17;;
10509;SDS011;5303;53.266;10.410;2022-07-10T01:39:28;2.20;;;1.10;;
10509;SDS011;5303;53.266;10.410;2022-07-10T01:41:54;4.93;;;1.27;;
10509;SDS011;5303;53.266;10.410;2022-07-10T01:44:19;1.77;;;1.07;;
10509;SDS011;5303;53.266;10.410;2022-07-10T01:46:47;3.13;;;1.20;;
10509;SDS011;5303;53.266;10.410;2022-07-10T01:49:14;2.50;;;1.07;;
10509;SDS011;5303;53.266;10.410;2022-07-10T01:51:39;5.10;;;1.57;;
10509;SDS011;5303;53.266;10.410;2022-07-10T01:54:05;3.33;;;1.30;;
10509;SDS011;5303;53.266;10.410;2022-07-10T01:56:31;1.53;;;1.10;;
10509;SDS011;5303;53.266;10.410;2022-07-10T01:58:56;3.93;;;1.73;;
10509;SDS011;5303;53.266;10.410;2022-07-10T02:01:23;4.23;;;1.47;;
10509;SDS011;5303;53.266;10.410;2022-07-10T02:03:48;3.27;;;1.47;;
10509;SDS011;5303;53.266;10.410;2022-07-10T02:06:32;5.53;;;1.33;;
10509;SDS011;5303;53.266;10.410;2022-07-10T02:08:57;2.77;;;1.10;;
10509;SDS011;5303;53.266;10.410;2022-07-10T02:11:22;4.67;;;1.40;;
10509;SDS011;5303;53.266;10.410;2022-07-10T02:13:48;3.73;;;1.47;;
10509;SDS011;5303;53.266;10.410;2022-07-10T02:16:13;4.57;;;1.17;;
10509;SDS011;5303;53.266;10.410;2022-07-10T02:18:38;2.60;;;1.20;;
10509;SDS011;5303;53.266;10.410;2022-07-10T02:21:04;2.00;;;1.20;;
10509;SDS011;5303;53.266;10.410;2022-07-10T02:23:30;5.23;;;1.50;;
10509;SDS011;5303;53.266;10.410;2022-07-10T02:25:55;3.17;;;1.17;;
10509;SDS011;5303;53.266;10.410;2022-07-10T02:28:20;3.23;;;1.27;;
10509;SDS011;5303;53.266;10.410;2022-07-10T02:30:46;5.03;;;1.37;;
10509;SDS011;5303;53.266;10.410;2022-07-10T02:33:11;1.67;;;1.20;;
10509;SDS011;5303;53.266;10.410;2022-07-10T02:35:36;5.70;;;1.50;;
10509;SDS011;5303;53.266;10.410;2022-07-10T02:38:01;2.20;;;1.23;;
10509;SDS011;5303;53.266;10.410;2022-07-10T02:40:27;3.63;;;1.33;;
10509;SDS011;5303;53.266;10.410;2022-07-10T02:42:52;4.43;;;1.43;;
10509;SDS011;5303;53.266;10.410;2022-07-10T02:45:17;2.40;;;1.23;;
10509;SDS011;5303;53.266;10.410;2022-07-10T02:47:43;4.53;;;1.43;;
10509;SDS011;5303;53.266;10.410;2022-07-10T02:50:08;5.17;;;1.37;;
10509;SDS011;5303;53.266;10.410;2022-07-10T02:52:34;5.80;;;1.70;;
10509;SDS011;5303;53.266;10.410;2022-07-10T02:54:59;4.87;;;1.73;;
10509;SDS011;5303;53.266;10.410;2022-07-10T02:57:25;2.80;;;1.30;;
10509;SDS011;5303;53.266;10.410;2022-07-10T02:59:50;5.47;;;1.60;;
10509;SDS011;5303;53.266;10.410;2022-07-10T03:02:16;5.03;;;1.20;;
10509;SDS011;5303;53.266;10.410;2022-07-10T03:04:41;4.17;;;1.30;;
10509;SDS011;5303;53.266;10.410;2022-07-10T03:07:06;6.17;;;1.60;;
10509;SDS011;5303;53.266;10.410;2022-07-10T03:09:32;3.13;;;1.40;;
10509;SDS011;5303;53.266;10.410;2022-07-10T03:11:57;5.40;;;1.67;;
10509;SDS011;5303;53.266;10.410;2022-07-10T03:14:22;4.43;;;1.83;;
10509;SDS011;5303;53.266;10.410;2022-07-10T03:16:48;3.77;;;1.50;;
10509;SDS011;5303;53.266;10.410;2022-07-10T03:19:13;9.17;;;2.13;;
10509;SDS011;5303;53.266;10.410;2022-07-10T03:21:38;5.03;;;1.50;;
10509;SDS011;5303;53.266;10.410;2022-07-10T03:24:03;8.17;;;1.70;;
10509;SDS011;5303;53.266;10.410;2022-07-10T03:26:29;6.50;;;1.80;;
10509;SDS011;5303;53.266;10.410;2022-07-10T03:28:55;4.13;;;1.70;;
10509;SDS011;5303;53.266;10.410;2022-07-10T03:31:20;4.47;;;1.30;;
10509;SDS011;5303;53.266;10.410;2022-07-10T03:33:46;4.80;;;1.60;;
10509;SDS011;5303;53.266;10.410;2022-07-10T03:36:11;5.80;;;1.83;;
10509;SDS011;5303;53.266;10.410;2022-07-10T03:38:38;4.83;;;1.53;;
10509;SDS011;5303;53.266;10.410;2022-07-10T03:41:03;5.53;;;1.70;;
10509;SDS011;5303;53.266;10.410;2022-07-10T03:43:29;3.43;;;1.40;;
10509;SDS011;5303;53.266;10.410;2022-07-10T03:45:54;7.03;;;1.70;;
10509;SDS011;5303;53.266;10.410;2022-07-10T03:48:19;8.70;;;1.70;;
10509;SDS011;5303;53.266;10.410;2022-07-10T03:50:45;9.30;;;1.83;;
10509;SDS011;5303;53.266;10.410;2022-07-10T03:53:14;6.50;;;1.77;;
10509;SDS011;5303;53.266;10.410;2022-07-10T03:55:39;3.60;;;1.50;;
10509;SDS011;5303;53.266;10.410;2022-07-10T03:58:04;8.93;;;2.10;;
10509;SDS011;5303;53.266;10.410;2022-07-10T04:00:29;4.97;;;1.43;;
10509;SDS011;5303;53.266;10.410;2022-07-10T04:03:00;6.33;;;1.90;;
10509;SDS011;5303;53.266;10.410;2022-07-10T04:05:28;7.37;;;1.80;;
10509;SDS011;5303;53.266;10.410;2022-07-10T04:07:54;4.90;;;2.13;;
10509;SDS011;5303;53.266;10.410;2022-07-10T04:10:24;4.40;;;1.80;;
10509;SDS011;5303;53.266;10.410;2022-07-10T04:12:50;7.37;;;1.93;;
10509;SDS011;5303;53.266;10.410;2022-07-10T04:15:16;5.40;;;2.10;;
10509;SDS011;5303;53.266;10.410;2022-07-10T04:17:42;8.10;;;1.63;;
10509;SDS011;5303;53.266;10.410;2022-07-10T04:20:08;5.23;;;1.93;;
10509;SDS011;5303;53.266;10.410;2022-07-10T04:22:34;5.67;;;1.87;;
10509;SDS011;5303;53.266;10.410;2022-07-10T04:24:59;7.77;;;1.80;;
10509;SDS011;5303;53.266;10.410;2022-07-10T04:27:25;9.70;;;1.83;;
10509;SDS011;5303;53.266;10.410;2022-07-10T04:29:50;6.13;;;1.80;;
10509;SDS011;5303;53.266;10.410;2022-07-10T04:32:16;8.13;;;1.70;;
10509;SDS011;5303;53.266;10.410;2022-07-10T04:34:41;3.93;;;1.67;;
10509;SDS011;5303;53.266;10.410;2022-07-10T04:37:07;5.00;;;1.80;;
10509;SDS011;5303;53.266;10.410;2022-07-10T04:39:33;5.77;;;1.93;;
10509;SDS011;5303;53.266;10.410;2022-07-10T04:41:59;6.87;;;2.03;;
10509;SDS011;5303;53.266;10.410;2022-07-10T04:44:25;5.13;;;1.73;;
10509;SDS011;5303;53.266;10.410;2022-07-10T04:46:50;7.17;;;1.70;;
10509;SDS011;5303;53.266;10.410;2022-07-10T04:49:15;7.63;;;1.80;;
10509;SDS011;5303;53.266;10.410;2022-07-10T04:51:41;6.93;;;2.17;;
10509;SDS011;5303;53.266;10.410;2022-07-10T04:54:06;5.47;;;2.07;;
10509;SDS011;5303;53.266;10.410;2022-07-10T04:56:31;4.57;;;1.70;;
10509;SDS011;5303;53.266;10.410;2022-07-10T04:58:57;9.13;;;2.10;;
10509;SDS011;5303;53.266;10.410;2022-07-10T05:01:22;9.70;;;2.17;;
10509;SDS011;5303;53.266;10.410;2022-07-10T05:03:48;8.27;;;2.63;;
10509;SDS011;5303;53.266;10.410;2022-07-10T05:06:14;6.80;;;2.17;;
10509;SDS011;5303;53.266;10.410;2022-07-10T05:08:39;8.73;;;2.33;;
10509;SDS011;5303;53.266;10.410;2022-07-10T05:11:04;3.67;;;1.80;;
10509;SDS011;5303;53.266;10.410;2022-07-10T05:13:30;7.97;;;1.93;;
10509;SDS011;5303;53.266;10.410;2022-07-10T05:15:55;6.90;;;2.40;;
10509;SDS011;5303;53.266;10.410;2022-07-10T05:18:21;9.07;;;2.33;;
10509;SDS011;5303;53.266;10.410;2022-07-10T05:20:46;8.50;;;2.27;;
10509;SDS011;5303;53.266;10.410;2022-07-10T05:23:12;5.17;;;2.20;;
10509;SDS011;5303;53.266;10.410;2022-07-10T05:25:38;9.10;;;2.20;;
10509;SDS011;5303;53.266;10.410;2022-07-10T05:28:04;5.80;;;2.10;;
10509;SDS011;5303;53.266;10.410;2022-07-10T05:30:30;13.80;;;2.83;;
10509;SDS011;5303;53.266;10.410;2022-07-10T05:32:55;8.07;;;2.30;;
10509;SDS011;5303;53.266;10.410;2022-07-10T05:35:21;6.43;;;2.40;;
10509;SDS011;5303;53.266;10.410;2022-07-10T05:37:46;6.87;;;2.27;;
10509;SDS011;5303;53.266;10.410;2022-07-10T05:40:12;6.63;;;2.43;;
10509;SDS011;5303;53.266;10.410;2022-07-10T05:42:37;7.00;;;2.20;;
10509;SDS011;5303;53.266;10.410;2022-07-10T05:45:03;4.93;;;1.97;;
10509;SDS011;5303;53.266;10.410;2022-07-10T05:47:29;9.23;;;3.07;;
10509;SDS011;5303;53.266;10.410;2022-07-10T05:49:54;7.87;;;2.10;;
10509;SDS011;5303;53.266;10.410;2022-07-10T05:52:20;8.70;;;2.43;;
10509;SDS011;5303;53.266;10.410;2022-07-10T05:54:45;10.60;;;2.77;;
10509;SDS011;5303;53.266;10.410;2022-07-10T05:57:10;11.50;;;2.63;;
10509;SDS011;5303;53.266;10.410;2022-07-10T05:59:36;5.70;;;2.30;;
10509;SDS011;5303;53.266;10.410;2022-07-10T06:02:01;8.67;;;2.63;;
10509;SDS011;5303;53.266;10.410;2022-07-10T06:04:27;9.50;;;3.00;;
10509;SDS011;5303;53.266;10.410;2022-07-10T06:06:53;10.40;;;2.80;;
10509;SDS011;5303;53.266;10.410;2022-07-10T06:09:18;6.80;;;2.90;;
10509;SDS011;5303;53.266;10.410;2022-07-10T06:11:43;10.27;;;3.30;;
10509;SDS011;5303;53.266;10.410;2022-07-10T06:14:11;10.73;;;2.97;;
10509;SDS011;5303;53.266;10.410;2022-07-10T06:16:36;8.20;;;2.80;;
10509;SDS011;5303;53.266;10.410;2022-07-10T06:19:02;11.00;;;2.67;;
10509;SDS011;5303;53.266;10.410;2022-07-10T06:21:27;11.23;;;3.00;;
10509;SDS011;5303;53.266;10.410;2022-07-10T06:23:52;9.67;;;2.80;;
10509;SDS011;5303;53.266;10.410;2022-07-10T06:26:18;9.00;;;2.50;;
10509;SDS011;5303;53.266;10.410;2022-07-10T06:28:43;8.47;;;2.50;;
10509;SDS011;5303;53.266;10.410;2022-07-10T06:31:08;5.53;;;2.47;;
10509;SDS011;5303;53.266;10.410;2022-07-10T06:33:34;7.57;;;2.70;;
10509;SDS011;5303;53.266;10.410;2022-07-10T06:36:00;11.07;;;3.53;;
10509;SDS011;5303;53.266;10.410;2022-07-10T06:38:26;7.83;;;3.13;;
10509;SDS011;5303;53.266;10.410;2022-07-10T06:40:51;12.67;;;3.40;;
10509;SDS011;5303;53.266;10.410;2022-07-10T06:43:17;13.17;;;2.77;;
10509;SDS011;5303;53.266;10.410;2022-07-10T06:45:42;11.33;;;3.13;;
10509;SDS011;5303;53.266;10.410;2022-07-10T06:48:08;10.23;;;3.17;;
10509;SDS011;5303;53.266;10.410;2022-07-10T06:50:34;9.57;;;2.93;;
10509;SDS011;5303;53.266;10.410;2022-07-10T06:53:00;10.50;;;2.80;;
10509;SDS011;5303;53.266;10.410;2022-07-10T06:55:26;7.93;;;2.83;;
10509;SDS011;5303;53.266;10.410;2022-07-10T06:57:52;7.63;;;2.60;;
10509;SDS011;5303;53.266;10.410;2022-07-10T07:00:18;12.70;;;3.27;;
10509;SDS011;5303;53.266;10.410;2022-07-10T07:02:44;10.60;;;3.37;;
10509;SDS011;5303;53.266;10.410;2022-07-10T07:05:10;8.47;;;2.50;;
10509;SDS011;5303;53.266;10.410;2022-07-10T07:07:36;8.73;;;2.90;;
10509;SDS011;5303;53.266;10.410;2022-07-10T07:10:01;12.80;;;3.23;;
10509;SDS011;5303;53.266;10.410;2022-07-10T07:12:27;11.27;;;3.23;;
10509;SDS011;5303;53.266;10.410;2022-07-10T07:14:53;13.33;;;3.03;;
10509;SDS011;5303;53.266;10.410;2022-07-10T07:17:18;10.90;;;3.00;;
10509;SDS011;5303;53.266;10.410;2022-07-10T07:19:47;11.37;;;2.77;;
10509;SDS011;5303;53.266;10.410;2022-07-10T07:22:31;10.33;;;2.73;;
10509;SDS011;5303;53.266;10.410;2022-07-10T07:25:15;12.27;;;3.00;;
10509;SDS011;5303;53.266;10.410;2022-07-10T07:27:40;11.67;;;3.17;;
10509;SDS011;5303;53.266;10.410;2022-07-10T07:30:07;9.03;;;3.17;;
10509;SDS011;5303;53.266;10.410;2022-07-10T07:32:35;8.43;;;3.17;;
10509;SDS011;5303;53.266;10.410;2022-07-10T07:35:02;11.33;;;3.03;;
10509;SDS011;5303;53.266;10.410;2022-07-10T07:37:47;9.37;;;2.80;;
10509;SDS011;5303;53.266;10.410;2022-07-10T07:40:23;8.00;;;2.57;;
10509;SDS011;5303;53.266;10.410;2022-07-10T07:42:49;8.80;;;2.97;;
10509;SDS011;5303;53.266;10.410;2022-07-10T07:45:16;15.10;;;3.63;;
10509;SDS011;5303;53.266;10.410;2022-07-10T07:50:16;10.43;;;2.30;;
10509;SDS011;5303;53.266;10.410;2022-07-10T07:52:43;7.57;;;2.70;;
10509;SDS011;5303;53.266;10.410;2022-07-10T07:55:10;12.57;;;3.00;;
10509;SDS011;5303;53.266;10.410;2022-07-10T07:57:36;11.80;;;3.00;;
10509;SDS011;5303;53.266;10.410;2022-07-10T08:00:02;11.40;;;3.00;;
10509;SDS011;5303;53.266;10.410;2022-07-10T08:02:29;7.17;;;2.77;;
10509;SDS011;5303;53.266;10.410;2022-07-10T08:04:55;6.90;;;2.47;;
10509;SDS011;5303;53.266;10.410;2022-07-10T08:07:20;6.57;;;2.40;;
10509;SDS011;5303;53.266;10.410;2022-07-10T08:09:45;12.17;;;2.70;;
10509;SDS011;5303;53.266;10.410;2022-07-10T08:12:10;11.03;;;2.57;;
10509;SDS011;5303;53.266;10.410;2022-07-10T08:14:36;8.07;;;2.67;;
10509;SDS011;5303;53.266;10.410;2022-07-10T08:17:02;9.87;;;2.70;;
10509;SDS011;5303;53.266;10.410;2022-07-10T08:19:27;7.37;;;2.40;;
10509;SDS011;5303;53.266;10.410;2022-07-10T08:21:52;5.93;;;2.40;;
10509;SDS011;5303;53.266;10.410;2022-07-10T08:24:17;7.43;;;2.47;;
10509;SDS011;5303;53.266;10.410;2022-07-10T08:26:43;8.23;;;2.90;;
10509;SDS011;5303;53.266;10.410;2022-07-10T08:29:09;6.43;;;2.70;;
10509;SDS011;5303;53.266;10.410;2022-07-10T08:31:34;10.13;;;2.67;;
10509;SDS011;5303;53.266;10.410;2022-07-10T08:34:00;6.90;;;2.30;;
10509;SDS011;5303;53.266;10.410;2022-07-10T08:36:25;5.60;;;2.50;;
10509;SDS011;5303;53.266;10.410;2022-07-10T08:38:51;8.40;;;2.60;;
10509;SDS011;5303;53.266;10.410;2022-07-10T08:41:24;11.33;;;2.40;;
10509;SDS011;5303;53.266;10.410;2022-07-10T08:43:50;8.33;;;2.13;;
10509;SDS011;5303;53.266;10.410;2022-07-10T08:46:15;6.10;;;2.67;;
10509;SDS011;5303;53.266;10.410;2022-07-10T08:48:42;11.97;;;2.47;;
10509;SDS011;5303;53.266;10.410;2022-07-10T08:51:12;6.57;;;1.93;;
10509;SDS011;5303;53.266;10.410;2022-07-10T08:53:51;10.90;;;2.70;;
10509;SDS011;5303;53.266;10.410;2022-07-10T08:56:16;8.50;;;2.53;;
10509;SDS011;5303;53.266;10.410;2022-07-10T08:58:42;9.50;;;2.50;;
10509;SDS011;5303;53.266;10.410;2022-07-10T09:01:07;7.83;;;2.63;;
10509;SDS011;5303;53.266;10.410;2022-07-10T09:03:33;14.20;;;2.47;;
10509;SDS011;5303;53.266;10.410;2022-07-10T09:05:58;7.30;;;2.30;;
10509;SDS011;5303;53.266;10.410;2022-07-10T09:08:25;9.53;;;2.50;;
10509;SDS011;5303;53.266;10.410;2022-07-10T09:11:08;9.47;;;3.03;;
10509;SDS011;5303;53.266;10.410;2022-07-10T09:13:51;9.60;;;2.47;;
10509;SDS011;5303;53.266;10.410;2022-07-10T09:16:24;5.77;;;2.40;;
10509;SDS011;5303;53.266;10.410;2022-07-10T09:18:54;5.53;;;2.63;;
10509;SDS011;5303;53.266;10.410;2022-07-10T09:21:20;8.57;;;2.20;;
10509;SDS011;5303;53.266;10.410;2022-07-10T09:23:46;8.33;;;2.13;;
10509;SDS011;5303;53.266;10.410;2022-07-10T09:26:13;9.43;;;2.63;;
10509;SDS011;5303;53.266;10.410;2022-07-10T09:28:38;9.53;;;2.67;;
10509;SDS011;5303;53.266;10.410;2022-07-10T09:31:03;8.27;;;2.47;;
10509;SDS011;5303;53.266;10.410;2022-07-10T09:33:29;8.30;;;2.57;;
10509;SDS011;5303;53.266;10.410;2022-07-10T09:41:11;8.87;;;2.53;;
10509;SDS011;5303;53.266;10.410;2022-07-10T09:46:20;10.10;;;2.40;;
10509;SDS011;5303;53.266;10.410;2022-07-10T09:48:47;10.00;;;2.37;;
10509;SDS011;5303;53.266;10.410;2022-07-10T09:51:12;5.87;;;1.80;;
10509;SDS011;5303;53.266;10.410;2022-07-10T09:53:39;6.73;;;2.30;;
10509;SDS011;5303;53.266;10.410;2022-07-10T09:56:06;9.47;;;3.03;;
10509;SDS011;5303;53.266;10.410;2022-07-10T09:58:36;7.30;;;2.50;;
10509;SDS011;5303;53.266;10.410;2022-07-10T10:01:07;12.83;;;2.70;;
10509;SDS011;5303;53.266;10.410;2022-07-10T10:03:34;5.80;;;2.00;;
10509;SDS011;5303;53.266;10.410;2022-07-10T10:06:22;8.00;;;2.23;;
10509;SDS011;5303;53.266;10.410;2022-07-10T10:09:51;8.47;;;2.20;;
10509;SDS011;5303;53.266;10.410;2022-07-10T10:11:47;10.03;;;2.47;;
10509;SDS011;5303;53.266;10.410;2022-07-10T10:14:14;4.73;;;2.07;;
10509;SDS011;5303;53.266;10.410;2022-07-10T10:16:43;5.83;;;1.93;;
10509;SDS011;5303;53.266;10.410;2022-07-10T10:19:10;9.40;;;2.47;;
10509;SDS011;5303;53.266;10.410;2022-07-10T10:21:54;6.60;;;2.27;;
10509;SDS011;5303;53.266;10.410;2022-07-10T10:24:23;6.63;;;1.77;;
10509;SDS011;5303;53.266;10.410;2022-07-10T10:26:50;6.03;;;2.10;;
10509;SDS011;5303;53.266;10.410;2022-07-10T10:29:16;5.77;;;1.87;;
10509;SDS011;5303;53.266;10.410;2022-07-10T10:31:41;5.73;;;1.70;;
10509;SDS011;5303;53.266;10.410;2022-07-10T10:34:08;7.33;;;2.20;;
10509;SDS011;5303;53.266;10.410;2022-07-10T10:44:22;5.10;;;1.90;;
10509;SDS011;5303;53.266;10.410;2022-07-10T10:49:22;3.93;;;1.63;;
10509;SDS011;5303;53.266;10.410;2022-07-10T11:00:11;4.40;;;1.47;;
10509;SDS011;5303;53.266;10.410;2022-07-10T11:02:38;5.10;;;1.60;;
10509;SDS011;5303;53.266;10.410;2022-07-10T11:10:28;5.57;;;1.63;;
10509;SDS011;5303;53.266;10.410;2022-07-10T11:13:11;4.37;;;1.90;;
10509;SDS011;5303;53.266;10.410;2022-07-10T11:15:44;4.60;;;1.83;;
10509;SDS011;5303;53.266;10.410;2022-07-10T11:18:19;3.53;;;1.70;;
10509;SDS011;5303;53.266;10.410;2022-07-10T11:21:01;3.70;;;1.50;;
10509;SDS011;5303;53.266;10.410;2022-07-10T11:29:17;5.23;;;1.77;;
10509;SDS011;5303;53.266;10.410;2022-07-10T11:31:43;6.83;;;2.10;;
10509;SDS011;5303;53.266;10.410;2022-07-10T11:34:34;5.10;;;1.70;;
10509;SDS011;5303;53.266;10.410;2022-07-10T11:37:02;5.57;;;2.00;;
10509;SDS011;5303;53.266;10.410;2022-07-10T11:39:32;4.87;;;1.50;;
10509;SDS011;5303;53.266;10.410;2022-07-10T11:42:00;5.37;;;1.83;;
10509;SDS011;5303;53.266;10.410;2022-07-10T11:44:25;5.67;;;1.80;;
10509;SDS011;5303;53.266;10.410;2022-07-10T11:46:56;5.43;;;1.77;;
10509;SDS011;5303;53.266;10.410;2022-07-10T11:49:26;5.97;;;2.00;;
10509;SDS011;5303;53.266;10.410;2022-07-10T11:52:02;8.63;;;2.50;;
10509;SDS011;5303;53.266;10.410;2022-07-10T11:54:31;5.50;;;2.07;;
10509;SDS011;5303;53.266;10.410;2022-07-10T11:57:04;6.83;;;2.03;;
10509;SDS011;5303;53.266;10.410;2022-07-10T11:59:36;7.13;;;1.90;;
10509;SDS011;5303;53.266;10.410;2022-07-10T12:02:01;8.03;;;4.70;;
10509;SDS011;5303;53.266;10.410;2022-07-10T12:04:28;7.67;;;3.57;;
10509;SDS011;5303;53.266;10.410;2022-07-10T12:06:54;8.47;;;2.33;;
10509;SDS011;5303;53.266;10.410;2022-07-10T12:09:20;11.10;;;2.27;;
10509;SDS011;5303;53.266;10.410;2022-07-10T12:11:57;8.43;;;3.17;;
10509;SDS011;5303;53.266;10.410;2022-07-10T12:14:27;8.63;;;2.60;;
10509;SDS011;5303;53.266;10.410;2022-07-10T12:16:53;6.73;;;2.20;;
10509;SDS011;5303;53.266;10.410;2022-07-10T12:21:50;7.73;;;2.20;;
10509;SDS011;5303;53.266;10.410;2022-07-10T12:24:16;7.30;;;2.07;;
10509;SDS011;5303;53.266;10.410;2022-07-10T12:26:44;5.70;;;1.80;;
10509;SDS011;5303;53.266;10.410;2022-07-10T12:29:20;6.67;;;2.37;;
10509;SDS011;5303;53.266;10.410;2022-07-10T12:31:50;7.63;;;1.90;;
10509;SDS011;5303;53.266;10.410;2022-07-10T12:34:17;4.47;;;1.70;;
10509;SDS011;5303;53.266;10.410;2022-07-10T12:36:47;4.93;;;1.90;;
10509;SDS011;5303;53.266;10.410;2022-07-10T12:39:18;5.23;;;1.97;;
10509;SDS011;5303;53.266;10.410;2022-07-10T12:41:57;6.53;;;1.63;;
10509;SDS011;5303;53.266;10.410;2022-07-10T12:44:33;6.60;;;1.93;;
10509;SDS011;5303;53.266;10.410;2022-07-10T12:49:29;5.63;;;1.80;;
10509;SDS011;5303;53.266;10.410;2022-07-10T12:51:54;4.17;;;1.57;;
10509;SDS011;5303;53.266;10.410;2022-07-10T12:54:37;3.90;;;1.80;;
10509;SDS011;5303;53.266;10.410;2022-07-10T12:57:06;7.13;;;1.80;;
10509;SDS011;5303;53.266;10.410;2022-07-10T12:59:35;5.43;;;1.73;;
10509;SDS011;5303;53.266;10.410;2022-07-10T13:02:16;7.00;;;2.20;;
10509;SDS011;5303;53.266;10.410;2022-07-10T13:04:55;5.23;;;1.93;;
10509;SDS011;5303;53.266;10.410;2022-07-10T13:07:31;4.90;;;2.27;;
10509;SDS011;5303;53.266;10.410;2022-07-10T13:10:01;4.40;;;1.87;;
10509;SDS011;5303;53.266;10.410;2022-07-10T13:12:27;5.70;;;2.00;;
10509;SDS011;5303;53.266;10.410;2022-07-10T13:14:52;7.30;;;1.93;;
10509;SDS011;5303;53.266;10.410;2022-07-10T13:17:18;4.50;;;1.63;;
10509;SDS011;5303;53.266;10.410;2022-07-10T13:19:43;8.40;;;2.37;;
10509;SDS011;5303;53.266;10.410;2022-07-10T13:22:08;6.53;;;1.70;;
10509;SDS011;5303;53.266;10.410;2022-07-10T13:24:34;6.30;;;1.90;;
10509;SDS011;5303;53.266;10.410;2022-07-10T13:26:59;6.03;;;1.70;;
10509;SDS011;5303;53.266;10.410;2022-07-10T13:29:24;4.90;;;1.83;;
10509;SDS011;5303;53.266;10.410;2022-07-10T13:31:50;10.50;;;2.20;;
10509;SDS011;5303;53.266;10.410;2022-07-10T13:34:15;7.03;;;2.00;;
10509;SDS011;5303;53.266;10.410;2022-07-10T13:36:40;8.20;;;1.90;;
10509;SDS011;5303;53.266;10.410;2022-07-10T13:39:06;8.80;;;2.00;;
10509;SDS011;5303;53.266;10.410;2022-07-10T13:41:31;4.73;;;1.60;;
10509;SDS011;5303;53.266;10.410;2022-07-10T13:43:56;5.53;;;1.70;;
10509;SDS011;5303;53.266;10.410;2022-07-10T13:46:21;6.70;;;2.50;;
10509;SDS011;5303;53.266;10.410;2022-07-10T13:48:47;6.40;;;2.43;;
10509;SDS011;5303;53.266;10.410;2022-07-10T13:51:12;7.20;;;2.63;;
10509;SDS011;5303;53.266;10.410;2022-07-10T13:53:38;5.73;;;3.40;;
10509;SDS011;5303;53.266;10.410;2022-07-10T13:56:06;4.60;;;2.00;;
10509;SDS011;5303;53.266;10.410;2022-07-10T13:58:33;6.20;;;1.80;;
10509;SDS011;5303;53.266;10.410;2022-07-10T14:00:59;5.93;;;2.23;;
10509;SDS011;5303;53.266;10.410;2022-07-10T14:03:25;7.67;;;2.77;;
10509;SDS011;5303;53.266;10.410;2022-07-10T14:05:51;2.27;;;1.70;;
10509;SDS011;5303;53.266;10.410;2022-07-10T14:08:16;3.30;;;1.37;;
10509;SDS011;5303;53.266;10.410;2022-07-10T14:10:41;5.37;;;1.70;;
10509;SDS011;5303;53.266;10.410;2022-07-10T14:13:06;6.70;;;2.13;;
10509;SDS011;5303;53.266;10.410;2022-07-10T14:15:33;7.97;;;2.33;;
10509;SDS011;5303;53.266;10.410;2022-07-10T14:18:00;5.73;;;2.40;;
10509;SDS011;5303;53.266;10.410;2022-07-10T14:20:25;4.63;;;1.90;;
10509;SDS011;5303;53.266;10.410;2022-07-10T14:22:51;5.70;;;2.60;;
10509;SDS011;5303;53.266;10.410;2022-07-10T14:25:16;6.67;;;2.17;;
10509;SDS011;5303;53.266;10.410;2022-07-10T14:27:42;5.97;;;2.20;;
10509;SDS011;5303;53.266;10.410;2022-07-10T14:30:07;3.77;;;1.77;;
10509;SDS011;5303;53.266;10.410;2022-07-10T14:32:34;6.13;;;1.67;;
10509;SDS011;5303;53.266;10.410;2022-07-10T14:34:59;8.20;;;1.77;;
10509;SDS011;5303;53.266;10.410;2022-07-10T14:37:24;10.50;;;2.47;;
10509;SDS011;5303;53.266;10.410;2022-07-10T14:39:50;10.50;;;2.63;;
10509;SDS011;5303;53.266;10.410;2022-07-10T14:42:15;5.23;;;1.60;;
10509;SDS011;5303;53.266;10.410;2022-07-10T14:44:40;6.77;;;1.87;;
10509;SDS011;5303;53.266;10.410;2022-07-10T14:47:06;4.87;;;2.20;;
10509;SDS011;5303;53.266;10.410;2022-07-10T14:49:31;5.00;;;1.80;;
10509;SDS011;5303;53.266;10.410;2022-07-10T14:51:56;5.87;;;1.80;;
10509;SDS011;5303;53.266;10.410;2022-07-10T14:54:22;6.60;;;2.10;;
10509;SDS011;5303;53.266;10.410;2022-07-10T14:56:47;5.60;;;2.17;;
10509;SDS011;5303;53.266;10.410;2022-07-10T14:59:13;3.87;;;1.90;;
10509;SDS011;5303;53.266;10.410;2022-07-10T15:01:38;7.33;;;2.07;;
10509;SDS011;5303;53.266;10.410;2022-07-10T15:04:04;8.00;;;2.10;;
10509;SDS011;5303;53.266;10.410;2022-07-10T15:06:29;8.17;;;1.90;;
10509;SDS011;5303;53.266;10.410;2022-07-10T15:08:54;7.70;;;2.20;;
10509;SDS011;5303;53.266;10.410;2022-07-10T15:11:20;8.00;;;2.10;;
10509;SDS011;5303;53.266;10.410;2022-07-10T15:13:47;5.60;;;1.80;;
10509;SDS011;5303;53.266;10.410;2022-07-10T15:16:17;2.37;;;1.33;;
10509;SDS011;5303;53.266;10.410;2022-07-10T15:18:42;8.30;;;2.23;;
10509;SDS011;5303;53.266;10.410;2022-07-10T15:21:08;4.33;;;1.70;;
10509;SDS011;5303;53.266;10.410;2022-07-10T15:23:33;5.07;;;1.60;;
10509;SDS011;5303;53.266;10.410;2022-07-10T15:25:58;4.10;;;1.40;;
10509;SDS011;5303;53.266;10.410;2022-07-10T15:28:24;4.40;;;1.30;;
10509;SDS011;5303;53.266;10.410;2022-07-10T15:30:49;5.23;;;1.90;;